Time;durP1;ratioP1;P1;durP2;ratioP2;P2;SDS_P1;SDS_P2;PMS_P1;PMS_P2;Temp;Humidity;BMP_temperature;BMP_pressure;BME280_temperature;BME280_humidity;BME280_pressure;Samples;Min_cycle;Max_cycle;Signal;HPM_P1;HPM_P2
2023/07/13 00:00:11;;;;;;;8.45;2.38;;;;;;;16.31;100.00;101213.63;5013625;28;20061;-59
2023/07/13 00:02:40;;;;;;;7.55;2.15;;;;;;;16.38;100.00;101225.41;5014053;28;20064;-59
2023/07/13 00:05:09;;;;;;;8.48;2.53;;;;;;;16.33;100.00;101219.66;5013699;28;20684;-59
2023/07/13 00:07:37;;;;;;;8.23;1.63;;;;;;;16.32;100.00;101219.78;5013704;28;20521;-59
2023/07/13 00:10:06;;;;;;;9.50;1.85;;;;;;;16.25;100.00;101218.59;5014115;28;20098;-59
2023/07/13 00:12:37;;;;;;;9.57;1.90;;;;;;;16.20;100.00;101219.00;5013711;28;20383;-59
2023/07/13 00:15:13;;;;;;;5.18;1.48;;;;;;;16.19;100.00;101220.78;5013690;28;20481;-59
2023/07/13 00:17:41;;;;;;;12.95;2.33;;;;;;;16.14;100.00;101230.13;5013723;28;20049;-59
2023/07/13 00:20:13;;;;;;;7.53;2.10;;;;;;;16.10;100.00;101226.88;5013657;28;20076;-59
2023/07/13 00:22:41;;;;;;;10.80;2.20;;;;;;;16.11;100.00;101231.19;5013582;28;20056;-59
2023/07/13 00:25:11;;;;;;;7.43;1.80;;;;;;;16.05;100.00;101231.72;5013691;28;20474;-59
2023/07/13 00:27:43;;;;;;;9.63;2.08;;;;;;;16.17;100.00;101229.84;5013520;28;20057;-59
2023/07/13 00:30:13;;;;;;;6.03;1.80;;;;;;;16.11;100.00;101231.19;5013071;28;20037;-59
2023/07/13 00:32:42;;;;;;;8.18;2.13;;;;;;;16.04;100.00;101230.88;5009068;28;20535;-60
2023/07/13 00:35:10;;;;;;;7.97;2.28;;;;;;;16.04;100.00;101224.72;5010637;28;20050;-56
2023/07/13 00:37:39;;;;;;;8.43;1.85;;;;;;;16.04;100.00;101222.06;5013361;28;20512;-56
2023/07/13 00:40:11;;;;;;;8.75;2.15;;;;;;;15.97;100.00;101234.16;5012853;28;20845;-55
2023/07/13 00:42:40;;;;;;;6.50;1.67;;;;;;;15.89;100.00;101242.75;5009602;28;20141;-56
2023/07/13 00:45:47;;;;;;;7.82;2.20;;;;;;;15.97;100.00;101239.47;5011440;28;20049;-56
2023/07/13 00:48:20;;;;;;;6.97;1.88;;;;;;;15.95;100.00;101239.59;5013279;28;20048;-59
2023/07/13 00:50:53;;;;;;;6.78;2.05;;;;;;;15.88;100.00;101233.94;5013014;28;20639;-59
2023/07/13 00:53:22;;;;;;;6.40;1.83;;;;;;;15.90;100.00;101244.44;5012869;28;20528;-59
2023/07/13 00:55:52;;;;;;;9.88;2.15;;;;;;;15.83;100.00;101228.19;5012901;28;20092;-59
2023/07/13 00:58:20;;;;;;;8.20;1.77;;;;;;;15.80;100.00;101232.88;5009996;28;20046;-59
2023/07/13 01:00:50;;;;;;;8.63;2.00;;;;;;;15.78;100.00;101227.66;5008254;28;20065;-59
2023/07/13 01:03:21;;;;;;;7.25;1.73;;;;;;;15.86;100.00;101235.88;5012995;28;20054;-59
2023/07/13 01:05:51;;;;;;;9.40;1.92;;;;;;;15.86;100.00;101237.69;5011076;28;20511;-59
2023/07/13 01:08:19;;;;;;;6.38;2.05;;;;;;;15.82;100.00;101241.56;5008714;28;20073;-59
2023/07/13 01:10:56;;;;;;;7.43;1.60;;;;;;;15.79;100.00;101233.81;5009216;28;20434;-59
2023/07/13 01:13:26;;;;;;;7.60;2.10;;;;;;;15.82;100.00;101238.91;5008501;28;20057;-57
2023/07/13 01:15:56;;;;;;;6.85;1.83;;;;;;;15.72;100.00;101236.97;5009454;28;20528;-55
2023/07/13 01:18:28;;;;;;;7.38;1.98;;;;;;;15.72;100.00;101236.97;5012749;28;20064;-56
2023/07/13 01:21:00;;;;;;;9.45;1.83;;;;;;;15.69;100.00;101237.22;5012603;28;20042;-56
2023/07/13 01:23:29;;;;;;;9.93;2.05;;;;;;;15.64;100.00;101238.56;5012004;28;20073;-56
2023/07/13 01:25:58;;;;;;;7.80;1.88;;;;;;;15.48;100.00;101238.94;5011996;28;20056;-56
2023/07/13 01:28:28;;;;;;;8.23;1.77;;;;;;;15.53;100.00;101239.41;5012397;28;20049;-55
2023/07/13 01:30:57;;;;;;;7.85;2.00;;;;;;;15.48;100.00;101239.78;5011749;28;20052;-56
2023/07/13 01:33:26;;;;;;;7.07;1.70;;;;;;;15.41;100.00;101241.22;5009826;28;20049;-55
2023/07/13 01:35:57;;;;;;;4.70;1.60;;;;;;;15.46;100.00;101243.50;5008523;28;20046;-56
2023/07/13 01:38:27;;;;;;;7.32;2.20;;;;;;;15.39;100.00;101240.50;5008112;28;20100;-56
2023/07/13 01:40:55;;;;;;;7.47;2.05;;;;;;;15.41;100.00;101243.88;5012280;28;20504;-56
2023/07/13 01:43:23;;;;;;;8.93;2.03;;;;;;;15.36;100.00;101241.56;5012626;28;20049;-59
2023/07/13 01:45:54;;;;;;;8.27;2.30;;;;;;;15.42;100.00;101242.06;5009343;28;20049;-60
2023/07/13 01:48:36;;;;;;;9.68;2.47;;;;;;;15.30;100.00;101242.09;5007405;28;20103;-55
2023/07/13 01:51:04;;;;;;;9.98;2.38;;;;;;;15.34;100.00;101230.28;5012123;28;20453;-56
2023/07/13 01:53:34;;;;;;;6.75;1.77;;;;;;;15.33;100.00;101236.53;5015452;28;20072;-59
2023/07/13 01:56:02;;;;;;;12.48;2.60;;;;;;;15.32;100.00;101226.88;5022203;28;20045;-59
2023/07/13 01:58:30;;;;;;;9.80;2.60;;;;;;;15.28;100.00;101233.41;5013258;28;20512;-59
2023/07/13 02:00:58;;;;;;;7.97;2.25;;;;;;;15.31;100.00;101232.31;5011356;28;20042;-59
2023/07/13 02:03:30;;;;;;;8.55;2.40;;;;;;;15.28;100.00;101228.09;5008094;28;20042;-59
2023/07/13 02:05:59;;;;;;;12.13;2.30;;;;;;;15.35;100.00;101236.41;5009698;28;20075;-59
2023/07/13 02:08:27;;;;;;;9.23;2.70;;;;;;;15.31;100.00;101233.19;5011748;28;20045;-59
2023/07/13 02:10:57;;;;;;;6.60;1.92;;;;;;;15.23;100.00;101225.00;5011863;28;20058;-59
2023/07/13 02:13:25;;;;;;;11.32;2.60;;;;;;;15.18;100.00;101227.97;5009663;28;20065;-55
2023/07/13 02:15:53;;;;;;;9.68;2.50;;;;;;;15.20;100.00;101235.81;5011858;28;20125;-55
2023/07/13 02:18:21;;;;;;;11.50;3.00;;;;;;;15.21;100.00;101232.19;5012124;28;20157;-53
2023/07/13 02:20:50;;;;;;;8.02;2.78;;;;;;;15.23;100.00;101242.69;5011766;28;20046;-56
2023/07/13 02:23:18;;;;;;;8.45;2.42;;;;;;;15.08;100.00;101239.41;5022467;28;20045;-56
2023/07/13 02:25:47;;;;;;;9.02;2.45;;;;;;;15.12;100.00;101248.81;5028700;28;20045;-56
2023/07/13 02:28:16;;;;;;;11.88;3.15;;;;;;;15.16;100.00;101244.97;5011573;28;20050;-56
2023/07/13 02:30:44;;;;;;;6.97;2.45;;;;;;;15.14;100.00;101245.09;5020177;28;20099;-55
2023/07/13 02:33:12;;;;;;;10.85;3.13;;;;;;;15.09;100.00;101244.59;5013649;28;20061;-55
2023/07/13 02:35:40;;;;;;;7.78;2.72;;;;;;;15.10;100.00;101248.09;5010875;28;20397;-55
2023/07/13 02:38:09;;;;;;;11.50;2.60;;;;;;;15.10;100.00;101245.47;5011500;28;20088;-55
2023/07/13 02:40:38;;;;;;;10.23;2.90;;;;;;;15.06;100.00;101244.84;5011765;28;20501;-56
2023/07/13 02:43:06;;;;;;;10.93;2.78;;;;;;;15.04;100.00;101242.31;5012561;28;20050;-56
2023/07/13 02:45:36;;;;;;;11.80;2.97;;;;;;;15.04;100.00;101246.78;5016804;28;20053;-57
2023/07/13 02:48:04;;;;;;;7.35;2.80;;;;;;;15.08;100.00;101247.38;5021274;28;20099;-56
2023/07/13 02:50:32;;;;;;;11.75;2.95;;;;;;;15.07;100.00;101251.84;5018315;28;20041;-56
2023/07/13 02:53:00;;;;;;;9.57;2.80;;;;;;;15.00;100.00;101248.81;5013101;28;20056;-56
2023/07/13 02:55:29;;;;;;;8.15;2.90;;;;;;;15.04;100.00;101249.44;5019724;28;20095;-56
2023/07/13 02:57:57;;;;;;;12.10;3.10;;;;;;;15.01;100.00;101249.66;5012239;28;20469;-55
2023/07/13 03:00:25;;;;;;;9.15;2.70;;;;;;;15.01;100.00;101257.59;5019798;28;20053;-56
2023/07/13 03:02:57;;;;;;;9.07;2.70;;;;;;;14.99;100.00;101254.22;5030922;28;20041;-56
2023/07/13 03:05:25;;;;;;;11.38;3.15;;;;;;;14.94;100.00;101251.09;5020986;28;20509;-55
2023/07/13 03:07:53;;;;;;;9.65;2.97;;;;;;;14.93;100.00;101260.84;5012192;28;20038;-56
2023/07/13 03:10:22;;;;;;;10.48;2.97;;;;;;;14.91;100.00;101262.75;5009583;28;20074;-56
2023/07/13 03:12:50;;;;;;;9.82;3.10;;;;;;;14.87;100.00;101259.53;5007891;28;20367;-56
2023/07/13 03:15:18;;;;;;;11.63;3.40;;;;;;;14.89;100.00;101264.69;5007134;28;20053;-54
2023/07/13 03:17:46;;;;;;;10.95;3.58;;;;;;;14.88;100.00;101265.66;5018312;28;20124;-56
2023/07/13 03:20:16;;;;;;;15.02;3.70;;;;;;;14.94;100.00;101272.28;5025091;28;20056;-55
2023/07/13 03:22:44;;;;;;;10.93;3.28;;;;;;;14.89;100.00;101275.28;5018710;28;20493;-55
2023/07/13 03:25:13;;;;;;;10.02;3.40;;;;;;;14.84;100.00;101274.78;5015863;28;20410;-55
2023/07/13 03:27:41;;;;;;;9.73;3.13;;;;;;;14.85;100.00;101273.84;5014628;28;20063;-56
2023/07/13 03:30:13;;;;;;;14.00;3.40;;;;;;;14.82;100.00;101276.69;5013398;28;20038;-56
2023/07/13 03:32:41;;;;;;;13.40;3.60;;;;;;;14.75;100.00;101278.13;5014571;28;20495;-55
2023/07/13 03:35:11;;;;;;;11.73;3.13;;;;;;;14.79;100.00;101274.28;5014538;28;20033;-55
2023/07/13 03:37:42;;;;;;;11.20;3.50;;;;;;;14.82;100.00;101274.03;5014634;28;20144;-55
2023/07/13 03:40:14;;;;;;;9.17;3.27;;;;;;;14.76;100.00;101275.38;5014444;28;20053;-53
2023/07/13 03:42:42;;;;;;;13.45;3.20;;;;;;;14.73;100.00;101280.91;5014475;28;20096;-55
2023/07/13 03:45:10;;;;;;;14.50;3.63;;;;;;;14.78;100.00;101273.47;5014148;28;20053;-56
2023/07/13 03:47:38;;;;;;;13.80;3.88;;;;;;;14.77;100.00;101286.81;5010273;28;20073;-55
2023/07/13 03:50:07;;;;;;;11.35;3.88;;;;;;;14.79;100.00;101285.75;5010870;28;20057;-55
2023/07/13 03:52:36;;;;;;;10.90;3.47;;;;;;;14.81;100.00;101290.91;5011648;28;20129;-55
2023/07/13 03:55:06;;;;;;;9.98;3.20;;;;;;;14.83;100.00;101291.63;5010636;28;20524;-56
2023/07/13 03:57:36;;;;;;;11.48;3.38;;;;;;;14.83;100.00;101302.22;5012656;28;20045;-56
2023/07/13 04:00:09;;;;;;;12.38;3.78;;;;;;;14.83;100.00;101297.78;5012421;28;20050;-55
2023/07/13 04:02:37;;;;;;;12.35;4.10;;;;;;;14.87;100.00;101287.78;5013831;28;20050;-55
2023/07/13 04:05:07;;;;;;;11.90;3.72;;;;;;;14.78;100.00;101291.13;5014208;28;20056;-55
2023/07/13 04:07:36;;;;;;;11.38;4.25;;;;;;;14.82;100.00;101295.22;5013845;28;20145;-56
2023/07/13 04:10:06;;;;;;;10.30;3.63;;;;;;;14.79;100.00;101290.19;5013820;28;20054;-55
2023/07/13 04:12:34;;;;;;;13.73;4.18;;;;;;;14.77;100.00;101297.41;5009925;28;20050;-58
2023/07/13 04:15:03;;;;;;;14.02;4.53;;;;;;;14.74;100.00;101297.63;5011103;28;20522;-58
2023/07/13 04:17:31;;;;;;;14.98;4.20;;;;;;;14.74;100.00;101306.41;5013389;28;20069;-58
2023/07/13 04:20:00;;;;;;;10.25;4.10;;;;;;;14.79;100.00;101300.75;5013611;28;20074;-58
2023/07/13 04:22:28;;;;;;;13.98;3.63;;;;;;;14.83;100.00;101304.88;5013797;28;20042;-59
2023/07/13 04:24:56;;;;;;;13.57;4.30;;;;;;;14.76;100.00;101299.19;5010342;28;20680;-59
2023/07/13 04:27:26;;;;;;;11.40;4.35;;;;;;;14.75;100.00;101307.25;5010640;28;20208;-59
2023/07/13 04:29:54;;;;;;;13.73;4.57;;;;;;;14.79;100.00;101301.63;5013452;28;20050;-59
2023/07/13 04:32:22;;;;;;;12.38;4.10;;;;;;;14.79;100.00;101316.66;5011102;28;20104;-56
2023/07/13 04:34:54;;;;;;;15.23;4.53;;;;;;;14.81;100.00;101304.16;5008722;28;20042;-55
2023/07/13 04:37:22;;;;;;;15.35;4.90;;;;;;;14.85;100.00;101313.56;5012278;28;20121;-56
2023/07/13 04:39:50;;;;;;;13.73;3.97;;;;;;;14.90;100.00;101310.53;5013505;28;20046;-54
2023/07/13 04:42:18;;;;;;;16.52;4.32;;;;;;;14.87;100.00;101309.84;5013411;28;20045;-56
2023/07/13 04:44:50;;;;;;;11.40;3.92;;;;;;;14.94;100.00;101310.19;5013548;28;20046;-54
2023/07/13 04:47:19;;;;;;;15.33;5.23;;;;;;;14.94;100.00;101315.47;5013259;28;20154;-55
2023/07/13 04:49:47;;;;;;;18.55;5.15;;;;;;;15.02;100.00;101315.75;5013134;28;20093;-55
2023/07/13 04:52:15;;;;;;;13.68;5.00;;;;;;;15.00;100.00;101319.50;5013075;28;20038;-54
2023/07/13 04:54:44;;;;;;;14.63;4.78;;;;;;;15.03;100.00;101322.72;5012806;28;20050;-55
2023/07/13 04:57:12;;;;;;;14.18;4.88;;;;;;;15.08;100.00;101322.41;5012879;28;20046;-55
2023/07/13 04:59:40;;;;;;;21.13;5.18;;;;;;;15.08;100.00;101326.81;5012846;28;20054;-57
2023/07/13 05:02:10;;;;;;;15.23;4.97;;;;;;;15.16;100.00;101327.94;5013049;28;20038;-57
2023/07/13 05:04:41;;;;;;;;;;;;;;;15.22;100.00;101329.28;5012235;28;20065;-56
2023/07/13 05:07:12;;;;;;;11.43;4.55;;;;;;;15.28;100.00;101331.44;5012838;28;20303;-55
2023/07/13 05:09:40;;;;;;;20.00;5.38;;;;;;;15.27;100.00;101342.16;5012566;28;20045;-54
2023/07/13 05:12:10;;;;;;;14.95;5.20;;;;;;;15.25;100.00;101331.69;5012729;28;20054;-56
2023/07/13 05:14:38;;;;;;;16.88;5.22;;;;;;;15.33;100.00;101336.38;5011356;28;20058;-56
2023/07/13 05:17:06;;;;;;;12.63;5.05;;;;;;;15.44;100.00;101343.50;5011147;28;20445;-57
2023/07/13 05:19:36;;;;;;;14.93;4.72;;;;;;;15.44;100.00;101351.47;5011147;28;20429;-56
2023/07/13 05:22:04;;;;;;;22.00;5.03;;;;;;;15.48;100.00;101345.78;5011156;28;20060;-53
2023/07/13 05:24:33;;;;;;;16.25;5.82;;;;;;;15.53;100.00;101356.06;5012542;28;20057;-55
2023/07/13 05:27:01;;;;;;;16.10;5.20;;;;;;;15.51;100.00;101356.16;5012363;28;20489;-54
2023/07/13 05:29:29;;;;;;;14.88;5.60;;;;;;;15.63;100.00;101359.66;5012349;28;20061;-56
2023/07/13 05:31:57;;;;;;;16.40;5.57;;;;;;;15.77;100.00;101357.72;5012201;28;20488;-55
2023/07/13 05:34:26;;;;;;;15.10;5.85;;;;;;;15.85;100.00;101360.66;5012287;28;20066;-55
2023/07/13 05:36:56;;;;;;;17.08;6.50;;;;;;;15.94;100.00;101365.22;5012135;28;20050;-56
2023/07/13 05:39:27;;;;;;;17.65;6.32;;;;;;;15.95;100.00;101358.97;5010183;28;20080;-56
2023/07/13 05:41:55;;;;;;;17.17;6.40;;;;;;;15.96;100.00;101365.09;5008018;28;20085;-54
2023/07/13 05:44:23;;;;;;;18.95;6.72;;;;;;;15.93;100.00;101365.34;5011634;28;20488;-55
2023/07/13 05:46:51;;;;;;;19.13;6.50;;;;;;;15.93;100.00;101368.84;5011897;28;20050;-54
2023/07/13 05:49:20;;;;;;;15.82;6.70;;;;;;;16.01;100.00;101371.72;5012110;28;20038;-56
2023/07/13 05:51:48;;;;;;;18.70;6.95;;;;;;;16.02;100.00;101375.19;5011982;28;20069;-55
2023/07/13 05:54:18;;;;;;;18.95;6.95;;;;;;;16.11;100.00;101370.97;5012008;28;20050;-55
2023/07/13 05:56:46;;;;;;;18.33;6.70;;;;;;;16.18;100.00;101378.34;5011764;28;20543;-55
2023/07/13 05:59:14;;;;;;;19.23;6.57;;;;;;;16.30;100.00;101380.97;5011939;28;20076;-54
2023/07/13 06:01:42;;;;;;;18.05;7.30;;;;;;;16.38;100.00;101384.66;5011790;28;20056;-55
2023/07/13 06:04:10;;;;;;;17.40;7.50;;;;;;;16.39;100.00;101382.88;5011633;28;20030;-53
2023/07/13 06:06:39;;;;;;;20.45;7.78;;;;;;;16.32;100.00;101385.19;5011740;28;20046;-55
2023/07/13 06:09:07;;;;;;;20.60;7.38;;;;;;;16.16;100.00;101384.72;5011664;28;20347;-54
2023/07/13 06:11:36;;;;;;;20.98;7.82;;;;;;;16.33;100.00;101392.19;5011665;28;20096;-55
2023/07/13 06:14:04;;;;;;;17.75;7.50;;;;;;;16.44;100.00;101388.63;5011778;28;20104;-55
2023/07/13 06:16:33;;;;;;;20.58;8.18;;;;;;;16.51;100.00;101392.47;5011683;28;20037;-53
2023/07/13 06:19:01;;;;;;;21.13;9.77;;;;;;;16.60;100.00;101396.19;5011678;28;20064;-57
2023/07/13 06:21:29;;;;;;;25.00;9.40;;;;;;;16.73;100.00;101388.91;5011345;28;20104;-58
2023/07/13 06:24:00;;;;;;;21.95;9.60;;;;;;;16.82;100.00;101389.94;5011491;28;20056;-55
2023/07/13 06:26:29;;;;;;;21.75;10.02;;;;;;;16.84;100.00;101401.28;5011634;28;20042;-56
2023/07/13 06:28:59;;;;;;;20.80;9.30;;;;;;;16.82;100.00;101411.19;5011523;28;20520;-57
2023/07/13 06:31:27;;;;;;;24.90;11.82;;;;;;;16.89;100.00;101409.75;5009920;28;20056;-55
2023/07/13 06:33:55;;;;;;;24.42;10.60;;;;;;;17.01;100.00;101405.22;5011398;28;20133;-55
2023/07/13 06:36:23;;;;;;;21.10;10.70;;;;;;;16.97;100.00;101406.44;5011555;28;20470;-59
2023/07/13 06:38:51;;;;;;;21.90;10.90;;;;;;;17.06;100.00;101405.69;5011256;28;20041;-59
2023/07/13 06:41:20;;;;;;;23.23;10.88;;;;;;;17.16;100.00;101408.41;5022351;28;20473;-59
2023/07/13 06:43:48;;;;;;;19.20;9.38;;;;;;;17.33;100.00;101411.44;5019618;28;20048;-59
2023/07/13 06:46:17;;;;;;;24.20;11.27;;;;;;;17.45;100.00;101412.22;5021415;28;20076;-59
2023/07/13 06:48:45;;;;;;;21.63;10.27;;;;;;;17.53;100.00;101418.59;4988520;28;20046;-59
2023/07/13 06:51:14;;;;;;;26.80;10.73;;;;;;;17.61;100.00;101412.59;5021649;28;20369;-59
2023/07/13 06:53:43;;;;;;;23.88;10.77;;;;;;;17.78;100.00;101412.94;5029432;28;20069;-59
2023/07/13 06:56:11;;;;;;;19.38;10.07;;;;;;;17.92;100.00;101420.59;5013159;28;20472;-59
2023/07/13 06:58:39;;;;;;;23.70;10.43;;;;;;;18.02;100.00;101420.63;5008540;28;20149;-58
2023/07/13 07:01:08;;;;;;;18.20;9.80;;;;;;;18.03;100.00;101420.50;5022148;28;20582;-58
2023/07/13 07:03:38;;;;;;;25.05;11.43;;;;;;;17.98;100.00;101414.72;5023122;28;20103;-55
2023/07/13 07:06:15;;;;;;;22.73;10.95;;;;;;;18.12;100.00;101421.53;5032970;28;20451;-54
2023/07/13 07:08:44;;;;;;;22.73;11.38;;;;;;;18.17;100.00;101429.94;5032464;28;20133;-54
2023/07/13 07:11:15;;;;;;;22.75;11.63;;;;;;;18.36;100.00;101429.13;5019021;28;20599;-55
2023/07/13 07:13:44;;;;;;;19.83;10.05;;;;;;;18.44;100.00;101432.94;5011482;28;20120;-55
2023/07/13 07:16:12;;;;;;;22.23;10.75;;;;;;;18.52;100.00;101428.63;5014018;28;20046;-56
2023/07/13 07:18:42;;;;;;;26.60;11.98;;;;;;;18.52;100.00;101428.63;5009690;28;20049;-55
2023/07/13 07:21:10;;;;;;;20.42;9.90;;;;;;;18.58;100.00;101436.06;5013231;28;20053;-55
2023/07/13 07:23:39;;;;;;;22.73;10.15;;;;;;;18.79;100.00;101434.25;5014969;28;20057;-53
2023/07/13 07:26:08;;;;;;;18.45;9.52;;;;;;;19.03;100.00;101433.84;5014703;28;20058;-55
2023/07/13 07:28:37;;;;;;;21.83;9.93;;;;;;;19.11;100.00;101433.16;5013736;28;20409;-53
2023/07/13 07:31:08;;;;;;;21.17;10.75;;;;;;;19.22;100.00;101441.00;5011475;28;20050;-58
2023/07/13 07:33:39;;;;;;;18.67;10.13;;;;;;;19.36;100.00;101445.91;5012254;28;20038;-61
2023/07/13 07:36:09;;;;;;;20.40;10.85;;;;;;;19.41;100.00;101440.97;5011966;28;20053;-61
2023/07/13 07:38:42;;;;;;;19.98;11.52;;;;;;;19.39;100.00;101445.59;5010166;28;20060;-61
2023/07/13 07:41:12;;;;;;;20.45;10.80;;;;;;;19.57;100.00;101439.53;5011003;28;20052;-60
2023/07/13 07:43:44;;;;;;;18.80;10.25;;;;;;;19.61;100.00;101440.94;5009821;28;20420;-60
2023/07/13 07:46:13;;;;;;;18.77;9.13;;;;;;;19.80;100.00;101441.88;5011519;28;20053;-62
2023/07/13 07:48:41;;;;;;;21.08;9.70;;;;;;;19.65;100.00;101442.31;5018496;28;20524;-53
2023/07/13 07:51:11;;;;;;;17.38;9.73;;;;;;;19.84;100.00;101444.13;5021931;28;20048;-56
2023/07/13 07:53:39;;;;;;;19.45;10.30;;;;;;;20.04;100.00;101436.00;5011008;28;20053;-55
2023/07/13 07:56:08;;;;;;;18.60;9.57;;;;;;;20.24;100.00;101442.94;5024788;28;20049;-55
2023/07/13 07:58:39;;;;;;;19.98;9.00;;;;;;;20.40;100.00;101438.78;5023886;28;20037;-55
2023/07/13 08:01:10;;;;;;;19.25;9.98;;;;;;;20.38;100.00;101432.75;5013892;28;20512;-56
2023/07/13 08:03:41;;;;;;;19.27;9.60;;;;;;;20.56;100.00;101427.41;5015602;28;20050;-55
2023/07/13 08:06:13;;;;;;;18.05;9.63;;;;;;;20.67;100.00;101432.56;5023011;28;20585;-56
2023/07/13 08:09:03;;;;;;;16.45;8.88;;;;;;;20.66;100.00;101428.19;5022448;28;20038;-59
2023/07/13 08:11:32;;;;;;;21.20;9.18;;;;;;;20.79;100.00;101433.19;5016549;28;20076;-59
2023/07/13 08:14:03;;;;;;;21.80;9.57;;;;;;;20.90;100.00;101434.78;5021365;28;20054;-60
2023/07/13 08:16:33;;;;;;;17.88;9.60;;;;;;;20.85;100.00;101432.56;5017604;28;20037;-60
2023/07/13 08:19:02;;;;;;;16.63;8.90;;;;;;;21.03;100.00;101432.56;5026017;28;20046;-60
2023/07/13 08:21:31;;;;;;;17.92;8.45;;;;;;;21.28;100.00;101443.44;5015317;28;20038;-60
2023/07/13 08:24:00;;;;;;;18.17;9.02;;;;;;;21.38;100.00;101440.69;5017110;28;20049;-60
2023/07/13 08:26:28;;;;;;;18.63;8.60;;;;;;;21.33;100.00;101427.78;5017750;28;20049;-60
2023/07/13 08:28:56;;;;;;;15.55;9.07;;;;;;;21.54;100.00;101434.63;5023373;28;20046;-60
2023/07/13 08:31:24;;;;;;;17.17;8.43;;;;;;;21.68;100.00;101439.41;5022614;28;20069;-59
2023/07/13 08:33:52;;;;;;;15.48;8.18;;;;;;;21.69;100.00;101430.38;5033038;28;20053;-61
2023/07/13 08:36:20;;;;;;;17.65;8.25;;;;;;;21.90;100.00;101435.31;5033238;28;20472;-56
2023/07/13 08:38:50;;;;;;;17.50;7.07;;;;;;;22.12;100.00;101430.41;5013949;28;20030;-56
2023/07/13 08:41:19;;;;;;;19.40;8.18;;;;;;;22.32;100.00;101428.28;5013043;28;20042;-57
2023/07/13 08:43:50;;;;;;;16.95;7.78;;;;;;;22.48;100.00;101434.72;5009196;28;20038;-57
2023/07/13 08:46:22;;;;;;;19.25;8.65;;;;;;;22.53;100.00;101435.91;5009931;28;20054;-57
2023/07/13 08:48:53;;;;;;;18.30;9.43;;;;;;;22.08;100.00;101429.03;5011132;28;20045;-57
2023/07/13 08:51:40;;;;;;;19.70;8.52;;;;;;;22.56;100.00;101424.84;5013138;28;20826;-57
2023/07/13 08:54:21;;;;;;;17.85;8.00;;;;;;;22.87;100.00;101426.06;5029987;28;20386;-57
2023/07/13 08:56:53;;;;;;;17.60;8.23;;;;;;;22.43;100.00;101428.00;5026791;28;20379;-57
2023/07/13 08:59:26;;;;;;;15.82;8.80;;;;;;;22.59;100.00;101424.53;5019075;28;20096;-57
2023/07/13 09:02:21;;;;;;;16.05;7.32;;;;;;;22.58;100.00;101416.66;5031019;28;20046;-57
2023/07/13 09:04:54;;;;;;;15.35;8.05;;;;;;;22.31;100.00;101423.94;5004138;28;20497;-57
2023/07/13 09:07:33;;;;;;;15.55;7.75;;;;;;;22.32;100.00;101422.94;5009488;28;20435;-57
2023/07/13 09:10:14;;;;;;;17.92;8.00;;;;;;;22.24;100.00;101420.22;5009933;28;20045;-56
2023/07/13 09:12:53;;;;;;;14.90;7.68;;;;;;;22.34;100.00;101420.94;5009783;28;20056;-56
2023/07/13 09:15:30;;;;;;;18.70;8.18;;;;;;;22.39;100.00;101418.63;5015656;28;20053;-57
2023/07/13 09:18:05;;;;;;;15.63;6.15;;;;;;;22.55;100.00;101427.69;5028017;28;20124;-56
2023/07/13 09:20:38;;;;;;;16.73;6.38;;;;;;;22.51;100.00;101434.38;5017294;28;20050;-57
2023/07/13 09:23:12;;;;;;;13.63;7.03;;;;;;;22.56;100.00;101437.41;5024047;28;20049;-56
2023/07/13 09:25:44;;;;;;;16.33;6.65;;;;;;;22.64;100.00;101436.59;5019529;28;20045;-57
2023/07/13 09:28:19;;;;;;;10.20;5.95;;;;;;;22.88;100.00;101439.28;5012354;28;20046;-55
2023/07/13 09:30:53;;;;;;;13.50;6.35;;;;;;;23.31;100.00;101436.44;5010423;28;20523;-57
2023/07/13 09:33:23;;;;;;;12.70;5.55;;;;;;;23.72;100.00;101439.03;5008265;28;20386;-57
2023/07/13 09:35:51;;;;;;;11.70;5.18;;;;;;;24.04;100.00;101429.22;5021105;28;20076;-56
2023/07/13 09:38:22;;;;;;;14.02;5.88;;;;;;;23.95;100.00;101422.22;5008279;28;20038;-56
2023/07/13 09:41:20;;;;;;;9.38;4.88;;;;;;;23.53;100.00;101429.56;5024298;28;20111;-56
2023/07/13 09:44:11;;;;;;;11.63;5.05;;;;;;;23.51;100.00;101438.78;4992182;28;20413;-56
2023/07/13 09:46:45;;;;;;;11.77;5.43;;;;;;;23.18;100.00;101444.16;5003108;28;20053;-57
2023/07/13 09:49:14;;;;;;;12.02;5.05;;;;;;;23.15;100.00;101453.41;5012124;28;20112;-57
2023/07/13 09:51:44;;;;;;;10.88;5.35;;;;;;;22.84;100.00;101461.22;5012712;28;20536;-57
2023/07/13 09:54:20;;;;;;;11.23;5.40;;;;;;;22.78;100.00;101465.41;5008190;28;20144;-56
2023/07/13 09:56:56;;;;;;;11.55;5.70;;;;;;;22.80;100.00;101460.75;5012504;28;20108;-57
2023/07/13 09:59:28;;;;;;;11.90;5.93;;;;;;;22.84;100.00;101454.03;5011446;28;20049;-57
2023/07/13 10:01:56;;;;;;;13.40;6.40;;;;;;;22.45;100.00;101466.22;5023446;28;20049;-56
2023/07/13 10:04:29;;;;;;;11.63;5.95;;;;;;;22.28;100.00;101467.13;5027337;28;20080;-56
2023/07/13 10:07:07;;;;;;;10.93;5.50;;;;;;;22.04;100.00;101462.50;5016270;28;20544;-57
2023/07/13 10:09:55;;;;;;;13.15;6.18;;;;;;;21.99;100.00;101463.00;5006934;28;20077;-57
2023/07/13 10:12:25;;;;;;;11.45;6.00;;;;;;;21.99;100.00;101464.81;5023161;28;20081;-57
2023/07/13 10:14:57;;;;;;;12.52;6.22;;;;;;;22.22;100.00;101455.22;5028653;28;20058;-57
2023/07/13 10:17:45;;;;;;;13.70;6.28;;;;;;;21.92;100.00;101465.47;5011895;28;20119;-57
2023/07/13 10:20:13;;;;;;;13.18;6.20;;;;;;;22.14;100.00;101467.72;5007552;28;20042;-57
2023/07/13 10:22:50;;;;;;;12.02;6.22;;;;;;;22.10;100.00;101469.88;5022010;28;20488;-57
2023/07/13 10:25:22;;;;;;;11.13;5.53;;;;;;;22.46;100.00;101472.41;4989006;28;20054;-57
2023/07/13 10:27:54;;;;;;;12.35;6.05;;;;;;;22.68;100.00;101472.78;5009781;28;20419;-57
2023/07/13 10:30:28;;;;;;;11.63;5.70;;;;;;;22.88;100.00;101470.66;5008835;28;20045;-57
2023/07/13 10:33:01;;;;;;;12.30;5.03;;;;;;;22.97;100.00;101472.31;5011806;28;20069;-57
2023/07/13 10:35:31;;;;;;;11.90;5.82;;;;;;;23.13;100.00;101463.47;5023062;28;20053;-56
2023/07/13 10:38:07;;;;;;;10.25;4.90;;;;;;;23.60;100.00;101462.75;5019617;28;20420;-56
2023/07/13 10:40:41;;;;;;;12.77;5.93;;;;;;;23.56;100.00;101468.63;5010040;28;20058;-56
2023/07/13 10:43:19;;;;;;;13.02;5.00;;;;;;;23.65;100.00;101480.19;5009939;28;20500;-57
2023/07/13 10:45:50;;;;;;;13.65;5.45;;;;;;;24.05;100.00;101479.28;5021233;28;20416;-56
2023/07/13 10:48:19;;;;;;;13.32;5.70;;;;;;;23.92;100.00;101484.34;5018090;28;20053;-56
2023/07/13 10:50:52;;;;;;;13.57;5.15;;;;;;;23.93;100.00;101476.13;5019390;28;20038;-56
2023/07/13 10:53:22;;;;;;;13.02;5.78;;;;;;;23.86;100.00;101511.84;5011329;28;20104;-57
2023/07/13 10:56:01;;;;;;;14.20;5.95;;;;;;;23.52;100.00;101508.41;5026390;28;20088;-61
2023/07/13 10:58:34;;;;;;;15.82;5.75;;;;;;;23.37;100.00;101516.28;5022467;28;20058;-57
2023/07/13 11:01:09;;;;;;;15.70;5.85;;;;;;;22.92;100.00;101505.00;5007646;28;20502;-57
2023/07/13 11:03:49;;;;;;;13.25;5.10;;;;;;;22.57;100.00;101506.09;5006771;28;20058;-58
2023/07/13 11:06:34;;;;;;;10.48;4.85;;;;;;;22.80;100.00;101500.94;5010662;28;20053;-57
2023/07/13 11:09:19;;;;;;;8.73;3.85;;;;;;;23.09;100.00;101499.66;5008827;28;20061;-57
2023/07/13 11:11:48;;;;;;;9.15;4.30;;;;;;;23.39;100.00;101503.53;5020061;28;20034;-57
2023/07/13 11:14:38;;;;;;;9.27;4.20;;;;;;;23.72;100.00;101497.28;5013563;28;20042;-57
2023/07/13 11:17:33;;;;;;;10.32;4.10;;;;;;;24.01;100.00;101491.38;5011312;28;20042;-58
2023/07/13 11:20:21;;;;;;;9.90;3.78;;;;;;;23.86;100.00;101496.59;5011661;28;20516;-58
2023/07/13 11:22:51;;;;;;;9.20;3.67;;;;;;;23.55;100.00;101497.31;5011227;28;20065;-57
2023/07/13 11:25:30;;;;;;;10.13;3.70;;;;;;;23.38;100.00;101491.13;5011520;28;20058;-58
2023/07/13 11:28:24;;;;;;;11.35;3.90;;;;;;;23.41;100.00;101503.34;5011185;28;20078;-57